sensor_id;sensor_type;location;lat;lon;timestamp;P1;durP1;ratioP1;P2;durP2;ratioP2
48685;SDS011;34485;51.536;3.816;2023-08-06T00:00:38;11.45;;;5.72;;
48685;SDS011;34485;51.536;3.816;2023-08-06T00:03:04;11.10;;;6.03;;
48685;SDS011;34485;51.536;3.816;2023-08-06T00:05:30;5.68;;;5.18;;
48685;SDS011;34485;51.536;3.816;2023-08-06T00:07:55;10.82;;;6.55;;
48685;SDS011;34485;51.536;3.816;2023-08-06T00:10:21;6.27;;;5.33;;
48685;SDS011;34485;51.536;3.816;2023-08-06T00:12:46;6.67;;;5.90;;
48685;SDS011;34485;51.536;3.816;2023-08-06T00:15:13;6.85;;;6.03;;
48685;SDS011;34485;51.536;3.816;2023-08-06T00:17:39;6.93;;;5.07;;
48685;SDS011;34485;51.536;3.816;2023-08-06T00:20:05;9.43;;;4.80;;
48685;SDS011;34485;51.536;3.816;2023-08-06T00:22:34;7.53;;;5.85;;
48685;SDS011;34485;51.536;3.816;2023-08-06T00:25:02;5.85;;;5.35;;
48685;SDS011;34485;51.536;3.816;2023-08-06T00:27:28;8.60;;;6.13;;
48685;SDS011;34485;51.536;3.816;2023-08-06T00:29:54;8.02;;;5.43;;
48685;SDS011;34485;51.536;3.816;2023-08-06T00:32:20;5.85;;;5.25;;
48685;SDS011;34485;51.536;3.816;2023-08-06T00:34:45;6.10;;;5.50;;
48685;SDS011;34485;51.536;3.816;2023-08-06T00:37:11;8.93;;;5.20;;
48685;SDS011;34485;51.536;3.816;2023-08-06T00:39:36;7.13;;;6.43;;
48685;SDS011;34485;51.536;3.816;2023-08-06T00:42:02;6.47;;;4.80;;
48685;SDS011;34485;51.536;3.816;2023-08-06T00:44:28;9.20;;;5.93;;
48685;SDS011;34485;51.536;3.816;2023-08-06T00:46:53;7.63;;;6.70;;
48685;SDS011;34485;51.536;3.816;2023-08-06T00:49:20;9.57;;;7.47;;
48685;SDS011;34485;51.536;3.816;2023-08-06T00:51:46;12.18;;;6.97;;
48685;SDS011;34485;51.536;3.816;2023-08-06T00:54:12;13.48;;;6.65;;
48685;SDS011;34485;51.536;3.816;2023-08-06T00:56:38;16.55;;;6.43;;
48685;SDS011;34485;51.536;3.816;2023-08-06T00:59:05;6.50;;;5.43;;
48685;SDS011;34485;51.536;3.816;2023-08-06T01:01:31;16.20;;;6.65;;
48685;SDS011;34485;51.536;3.816;2023-08-06T01:03:57;9.40;;;5.88;;
48685;SDS011;34485;51.536;3.816;2023-08-06T01:06:28;10.52;;;6.28;;
48685;SDS011;34485;51.536;3.816;2023-08-06T01:09:07;5.50;;;4.88;;
48685;SDS011;34485;51.536;3.816;2023-08-06T01:14:26;6.85;;;5.10;;
48685;SDS011;34485;51.536;3.816;2023-08-06T01:16:58;8.27;;;5.45;;
48685;SDS011;34485;51.536;3.816;2023-08-06T01:19:24;7.55;;;5.10;;
48685;SDS011;34485;51.536;3.816;2023-08-06T01:21:50;11.67;;;4.93;;
48685;SDS011;34485;51.536;3.816;2023-08-06T01:24:15;15.68;;;5.07;;
48685;SDS011;34485;51.536;3.816;2023-08-06T01:27:24;10.30;;;4.60;;
48685;SDS011;34485;51.536;3.816;2023-08-06T01:30:01;7.82;;;3.45;;
48685;SDS011;34485;51.536;3.816;2023-08-06T01:32:34;6.90;;;4.07;;
48685;SDS011;34485;51.536;3.816;2023-08-06T01:35:03;4.10;;;3.63;;
48685;SDS011;34485;51.536;3.816;2023-08-06T01:37:30;4.32;;;4.03;;
48685;SDS011;34485;51.536;3.816;2023-08-06T01:39:56;5.15;;;4.50;;
48685;SDS011;34485;51.536;3.816;2023-08-06T01:42:22;23.38;;;5.68;;
48685;SDS011;34485;51.536;3.816;2023-08-06T01:44:48;5.30;;;4.83;;
48685;SDS011;34485;51.536;3.816;2023-08-06T01:47:13;4.80;;;4.40;;
48685;SDS011;34485;51.536;3.816;2023-08-06T01:49:39;7.20;;;3.17;;
48685;SDS011;34485;51.536;3.816;2023-08-06T01:52:05;4.00;;;3.27;;
48685;SDS011;34485;51.536;3.816;2023-08-06T01:54:31;3.47;;;3.20;;
48685;SDS011;34485;51.536;3.816;2023-08-06T01:56:56;3.40;;;2.88;;
48685;SDS011;34485;51.536;3.816;2023-08-06T01:59:23;3.80;;;2.60;;
48685;SDS011;34485;51.536;3.816;2023-08-06T02:01:49;3.08;;;2.42;;
48685;SDS011;34485;51.536;3.816;2023-08-06T02:04:14;6.00;;;1.90;;
48685;SDS011;34485;51.536;3.816;2023-08-06T02:06:40;3.08;;;2.58;;
48685;SDS011;34485;51.536;3.816;2023-08-06T02:09:05;3.13;;;2.93;;
48685;SDS011;34485;51.536;3.816;2023-08-06T02:11:31;8.77;;;2.80;;
48685;SDS011;34485;51.536;3.816;2023-08-06T02:13:56;5.97;;;4.45;;
48685;SDS011;34485;51.536;3.816;2023-08-06T02:16:22;7.97;;;5.37;;
48685;SDS011;34485;51.536;3.816;2023-08-06T02:18:48;12.83;;;8.87;;
48685;SDS011;34485;51.536;3.816;2023-08-06T02:21:13;15.82;;;9.07;;
48685;SDS011;34485;51.536;3.816;2023-08-06T02:23:39;10.13;;;7.13;;
48685;SDS011;34485;51.536;3.816;2023-08-06T02:26:04;10.07;;;5.80;;
48685;SDS011;34485;51.536;3.816;2023-08-06T02:28:30;10.00;;;5.70;;
48685;SDS011;34485;51.536;3.816;2023-08-06T02:30:57;10.82;;;5.05;;
48685;SDS011;34485;51.536;3.816;2023-08-06T02:33:23;9.10;;;5.63;;
48685;SDS011;34485;51.536;3.816;2023-08-06T02:35:49;19.52;;;6.25;;
48685;SDS011;34485;51.536;3.816;2023-08-06T02:38:14;9.77;;;4.57;;
48685;SDS011;34485;51.536;3.816;2023-08-06T02:40:46;16.50;;;3.55;;
48685;SDS011;34485;51.536;3.816;2023-08-06T02:43:12;13.43;;;4.78;;
48685;SDS011;34485;51.536;3.816;2023-08-06T02:45:38;19.40;;;5.27;;
48685;SDS011;34485;51.536;3.816;2023-08-06T02:48:04;12.60;;;3.50;;
48685;SDS011;34485;51.536;3.816;2023-08-06T02:50:30;9.63;;;3.80;;
48685;SDS011;34485;51.536;3.816;2023-08-06T02:52:56;9.60;;;4.90;;
48685;SDS011;34485;51.536;3.816;2023-08-06T02:55:22;13.43;;;4.07;;
48685;SDS011;34485;51.536;3.816;2023-08-06T02:57:47;19.30;;;4.90;;
48685;SDS011;34485;51.536;3.816;2023-08-06T03:00:13;10.67;;;4.23;;
48685;SDS011;34485;51.536;3.816;2023-08-06T03:02:39;8.52;;;3.85;;
48685;SDS011;34485;51.536;3.816;2023-08-06T03:05:04;13.33;;;4.07;;
48685;SDS011;34485;51.536;3.816;2023-08-06T03:07:31;10.82;;;3.65;;
48685;SDS011;34485;51.536;3.816;2023-08-06T03:09:58;9.63;;;3.97;;
48685;SDS011;34485;51.536;3.816;2023-08-06T03:12:26;9.35;;;3.42;;
48685;SDS011;34485;51.536;3.816;2023-08-06T03:14:52;13.80;;;4.63;;
48685;SDS011;34485;51.536;3.816;2023-08-06T03:17:17;9.13;;;3.93;;
48685;SDS011;34485;51.536;3.816;2023-08-06T03:19:43;16.20;;;3.80;;
48685;SDS011;34485;51.536;3.816;2023-08-06T03:22:09;12.37;;;4.37;;
48685;SDS011;34485;51.536;3.816;2023-08-06T03:24:34;14.52;;;5.05;;
48685;SDS011;34485;51.536;3.816;2023-08-06T03:27:00;7.13;;;4.17;;
48685;SDS011;34485;51.536;3.816;2023-08-06T03:29:25;15.97;;;5.10;;
48685;SDS011;34485;51.536;3.816;2023-08-06T03:31:51;13.48;;;5.53;;
48685;SDS011;34485;51.536;3.816;2023-08-06T03:34:17;13.07;;;5.28;;
48685;SDS011;34485;51.536;3.816;2023-08-06T03:36:43;10.33;;;5.10;;
48685;SDS011;34485;51.536;3.816;2023-08-06T03:39:08;13.47;;;5.67;;
48685;SDS011;34485;51.536;3.816;2023-08-06T03:41:34;16.17;;;5.68;;
48685;SDS011;34485;51.536;3.816;2023-08-06T03:43:59;12.00;;;5.13;;
48685;SDS011;34485;51.536;3.816;2023-08-06T03:46:27;17.77;;;4.57;;
48685;SDS011;34485;51.536;3.816;2023-08-06T03:48:53;14.50;;;5.00;;
48685;SDS011;34485;51.536;3.816;2023-08-06T03:51:18;13.15;;;4.38;;
48685;SDS011;34485;51.536;3.816;2023-08-06T03:53:44;6.63;;;3.53;;
48685;SDS011;34485;51.536;3.816;2023-08-06T03:56:10;14.30;;;3.80;;
48685;SDS011;34485;51.536;3.816;2023-08-06T03:58:35;7.75;;;3.58;;
48685;SDS011;34485;51.536;3.816;2023-08-06T04:01:01;7.90;;;3.13;;
48685;SDS011;34485;51.536;3.816;2023-08-06T04:03:28;11.40;;;4.18;;
48685;SDS011;34485;51.536;3.816;2023-08-06T04:05:54;9.32;;;3.42;;
48685;SDS011;34485;51.536;3.816;2023-08-06T04:08:20;8.50;;;3.60;;
48685;SDS011;34485;51.536;3.816;2023-08-06T04:10:48;12.18;;;3.25;;
48685;SDS011;34485;51.536;3.816;2023-08-06T04:13:14;11.13;;;3.33;;
48685;SDS011;34485;51.536;3.816;2023-08-06T04:15:40;7.73;;;3.57;;
48685;SDS011;34485;51.536;3.816;2023-08-06T04:18:05;6.23;;;2.60;;
48685;SDS011;34485;51.536;3.816;2023-08-06T04:20:31;8.43;;;3.47;;
48685;SDS011;34485;51.536;3.816;2023-08-06T04:22:57;8.30;;;3.20;;
48685;SDS011;34485;51.536;3.816;2023-08-06T04:25:22;7.80;;;3.37;;
48685;SDS011;34485;51.536;3.816;2023-08-06T04:27:48;7.40;;;3.67;;
48685;SDS011;34485;51.536;3.816;2023-08-06T04:30:14;9.27;;;3.50;;
48685;SDS011;34485;51.536;3.816;2023-08-06T04:32:39;8.70;;;3.13;;
48685;SDS011;34485;51.536;3.816;2023-08-06T04:35:05;8.00;;;4.30;;
48685;SDS011;34485;51.536;3.816;2023-08-06T04:37:31;7.43;;;2.90;;
48685;SDS011;34485;51.536;3.816;2023-08-06T04:39:57;10.03;;;3.57;;
48685;SDS011;34485;51.536;3.816;2023-08-06T04:42:22;10.02;;;3.38;;
48685;SDS011;34485;51.536;3.816;2023-08-06T04:44:48;11.20;;;4.33;;
48685;SDS011;34485;51.536;3.816;2023-08-06T04:47:13;12.40;;;3.40;;
48685;SDS011;34485;51.536;3.816;2023-08-06T04:49:39;7.28;;;2.88;;
48685;SDS011;34485;51.536;3.816;2023-08-06T04:52:05;11.10;;;3.27;;
48685;SDS011;34485;51.536;3.816;2023-08-06T04:54:31;13.50;;;3.42;;
48685;SDS011;34485;51.536;3.816;2023-08-06T04:56:56;5.30;;;3.63;;
48685;SDS011;34485;51.536;3.816;2023-08-06T04:59:22;7.57;;;3.57;;
48685;SDS011;34485;51.536;3.816;2023-08-06T05:01:48;5.03;;;3.23;;
48685;SDS011;34485;51.536;3.816;2023-08-06T05:04:13;9.02;;;2.95;;
48685;SDS011;34485;51.536;3.816;2023-08-06T05:06:39;10.47;;;3.93;;
48685;SDS011;34485;51.536;3.816;2023-08-06T05:09:05;11.13;;;3.53;;
48685;SDS011;34485;51.536;3.816;2023-08-06T05:11:31;5.90;;;3.60;;
48685;SDS011;34485;51.536;3.816;2023-08-06T05:13:56;8.07;;;3.17;;
48685;SDS011;34485;51.536;3.816;2023-08-06T05:16:22;4.57;;;3.20;;
48685;SDS011;34485;51.536;3.816;2023-08-06T05:18:48;5.60;;;3.40;;
48685;SDS011;34485;51.536;3.816;2023-08-06T05:21:14;11.13;;;3.63;;
48685;SDS011;34485;51.536;3.816;2023-08-06T05:23:41;10.03;;;3.30;;
48685;SDS011;34485;51.536;3.816;2023-08-06T05:26:07;5.93;;;3.22;;
48685;SDS011;34485;51.536;3.816;2023-08-06T05:28:33;12.50;;;4.55;;
48685;SDS011;34485;51.536;3.816;2023-08-06T05:31:02;9.00;;;3.60;;
48685;SDS011;34485;51.536;3.816;2023-08-06T05:33:28;8.97;;;3.60;;
48685;SDS011;34485;51.536;3.816;2023-08-06T05:35:54;8.77;;;2.85;;
48685;SDS011;34485;51.536;3.816;2023-08-06T05:38:20;6.17;;;2.73;;
48685;SDS011;34485;51.536;3.816;2023-08-06T05:40:45;3.08;;;1.77;;
48685;SDS011;34485;51.536;3.816;2023-08-06T05:43:11;10.33;;;2.57;;
48685;SDS011;34485;51.536;3.816;2023-08-06T05:45:36;7.67;;;2.40;;
48685;SDS011;34485;51.536;3.816;2023-08-06T05:48:02;6.30;;;1.92;;
48685;SDS011;34485;51.536;3.816;2023-08-06T05:50:28;4.57;;;2.47;;
48685;SDS011;34485;51.536;3.816;2023-08-06T05:52:53;6.63;;;2.15;;
48685;SDS011;34485;51.536;3.816;2023-08-06T05:55:22;4.53;;;2.07;;
48685;SDS011;34485;51.536;3.816;2023-08-06T05:57:47;10.82;;;2.70;;
48685;SDS011;34485;51.536;3.816;2023-08-06T06:00:13;4.73;;;2.80;;
48685;SDS011;34485;51.536;3.816;2023-08-06T06:02:39;6.53;;;2.40;;
48685;SDS011;34485;51.536;3.816;2023-08-06T06:05:04;6.00;;;1.97;;
48685;SDS011;34485;51.536;3.816;2023-08-06T06:07:30;7.22;;;2.08;;
48685;SDS011;34485;51.536;3.816;2023-08-06T06:09:55;6.23;;;1.97;;
48685;SDS011;34485;51.536;3.816;2023-08-06T06:12:21;8.13;;;2.73;;
48685;SDS011;34485;51.536;3.816;2023-08-06T06:14:47;3.23;;;1.80;;
48685;SDS011;34485;51.536;3.816;2023-08-06T06:17:13;8.93;;;2.60;;
48685;SDS011;34485;51.536;3.816;2023-08-06T06:19:38;9.10;;;2.77;;
48685;SDS011;34485;51.536;3.816;2023-08-06T06:22:04;7.40;;;2.35;;
48685;SDS011;34485;51.536;3.816;2023-08-06T06:24:29;13.37;;;2.37;;
48685;SDS011;34485;51.536;3.816;2023-08-06T06:26:55;2.97;;;1.80;;
48685;SDS011;34485;51.536;3.816;2023-08-06T06:29:20;7.07;;;2.83;;
48685;SDS011;34485;51.536;3.816;2023-08-06T06:31:46;7.30;;;2.90;;
48685;SDS011;34485;51.536;3.816;2023-08-06T06:34:12;10.13;;;2.43;;
48685;SDS011;34485;51.536;3.816;2023-08-06T06:36:37;7.80;;;2.17;;
48685;SDS011;34485;51.536;3.816;2023-08-06T06:39:03;12.47;;;2.90;;
48685;SDS011;34485;51.536;3.816;2023-08-06T06:41:28;5.93;;;2.20;;
48685;SDS011;34485;51.536;3.816;2023-08-06T06:43:56;6.17;;;2.10;;
48685;SDS011;34485;51.536;3.816;2023-08-06T06:46:22;6.82;;;3.28;;
48685;SDS011;34485;51.536;3.816;2023-08-06T06:48:47;3.53;;;2.47;;
48685;SDS011;34485;51.536;3.816;2023-08-06T06:51:13;8.63;;;2.23;;
48685;SDS011;34485;51.536;3.816;2023-08-06T06:53:38;8.87;;;2.90;;
48685;SDS011;34485;51.536;3.816;2023-08-06T06:56:04;5.33;;;2.30;;
48685;SDS011;34485;51.536;3.816;2023-08-06T06:58:30;6.40;;;2.70;;
48685;SDS011;34485;51.536;3.816;2023-08-06T07:00:56;5.53;;;3.28;;
48685;SDS011;34485;51.536;3.816;2023-08-06T07:03:22;4.88;;;2.10;;
48685;SDS011;34485;51.536;3.816;2023-08-06T07:05:48;8.27;;;2.37;;
48685;SDS011;34485;51.536;3.816;2023-08-06T07:08:15;7.47;;;2.35;;
48685;SDS011;34485;51.536;3.816;2023-08-06T07:10:41;9.93;;;2.57;;
48685;SDS011;34485;51.536;3.816;2023-08-06T07:13:08;9.45;;;2.83;;
48685;SDS011;34485;51.536;3.816;2023-08-06T07:15:33;17.80;;;3.60;;
48685;SDS011;34485;51.536;3.816;2023-08-06T07:17:59;4.37;;;2.40;;
48685;SDS011;34485;51.536;3.816;2023-08-06T07:20:25;6.63;;;2.28;;
48685;SDS011;34485;51.536;3.816;2023-08-06T07:22:50;7.93;;;2.20;;
48685;SDS011;34485;51.536;3.816;2023-08-06T07:25:16;11.93;;;2.20;;
48685;SDS011;34485;51.536;3.816;2023-08-06T07:27:42;7.70;;;2.37;;
48685;SDS011;34485;51.536;3.816;2023-08-06T07:30:08;17.75;;;2.92;;
48685;SDS011;34485;51.536;3.816;2023-08-06T07:32:33;9.17;;;2.63;;
48685;SDS011;34485;51.536;3.816;2023-08-06T07:34:59;12.88;;;2.95;;
48685;SDS011;34485;51.536;3.816;2023-08-06T07:37:26;8.73;;;2.50;;
48685;SDS011;34485;51.536;3.816;2023-08-06T07:39:57;10.90;;;3.10;;
48685;SDS011;34485;51.536;3.816;2023-08-06T07:42:23;11.55;;;2.83;;
48685;SDS011;34485;51.536;3.816;2023-08-06T07:44:52;8.47;;;2.73;;
48685;SDS011;34485;51.536;3.816;2023-08-06T07:47:19;11.23;;;2.72;;
48685;SDS011;34485;51.536;3.816;2023-08-06T07:49:45;8.05;;;3.30;;
48685;SDS011;34485;51.536;3.816;2023-08-06T07:52:10;5.37;;;2.10;;
48685;SDS011;34485;51.536;3.816;2023-08-06T07:54:36;15.33;;;2.93;;
48685;SDS011;34485;51.536;3.816;2023-08-06T07:57:02;9.13;;;2.63;;
48685;SDS011;34485;51.536;3.816;2023-08-06T07:59:28;11.45;;;3.30;;
48685;SDS011;34485;51.536;3.816;2023-08-06T08:01:53;9.60;;;2.57;;
48685;SDS011;34485;51.536;3.816;2023-08-06T08:04:19;10.67;;;2.23;;
48685;SDS011;34485;51.536;3.816;2023-08-06T08:06:46;8.50;;;2.50;;
48685;SDS011;34485;51.536;3.816;2023-08-06T08:09:12;8.93;;;2.78;;
48685;SDS011;34485;51.536;3.816;2023-08-06T08:11:38;12.60;;;3.38;;
48685;SDS011;34485;51.536;3.816;2023-08-06T08:14:04;8.27;;;2.85;;
48685;SDS011;34485;51.536;3.816;2023-08-06T08:16:30;16.20;;;2.63;;
48685;SDS011;34485;51.536;3.816;2023-08-06T08:18:56;5.78;;;2.58;;
48685;SDS011;34485;51.536;3.816;2023-08-06T08:21:21;5.33;;;2.37;;
48685;SDS011;34485;51.536;3.816;2023-08-06T08:23:49;9.98;;;2.20;;
48685;SDS011;34485;51.536;3.816;2023-08-06T08:26:15;6.70;;;2.90;;
48685;SDS011;34485;51.536;3.816;2023-08-06T08:28:40;11.20;;;3.40;;
48685;SDS011;34485;51.536;3.816;2023-08-06T08:31:09;12.87;;;3.27;;
48685;SDS011;34485;51.536;3.816;2023-08-06T08:33:36;13.27;;;3.38;;
48685;SDS011;34485;51.536;3.816;2023-08-06T08:36:02;11.82;;;2.83;;
48685;SDS011;34485;51.536;3.816;2023-08-06T08:38:28;6.93;;;2.95;;
48685;SDS011;34485;51.536;3.816;2023-08-06T08:40:54;10.00;;;1.93;;
48685;SDS011;34485;51.536;3.816;2023-08-06T08:43:23;6.53;;;2.60;;
48685;SDS011;34485;51.536;3.816;2023-08-06T08:45:52;7.27;;;2.43;;
48685;SDS011;34485;51.536;3.816;2023-08-06T08:48:23;8.02;;;3.08;;
48685;SDS011;34485;51.536;3.816;2023-08-06T08:50:49;12.60;;;2.30;;
48685;SDS011;34485;51.536;3.816;2023-08-06T08:53:16;11.32;;;2.40;;
48685;SDS011;34485;51.536;3.816;2023-08-06T08:55:46;9.73;;;2.83;;
48685;SDS011;34485;51.536;3.816;2023-08-06T08:58:13;6.20;;;2.23;;
48685;SDS011;34485;51.536;3.816;2023-08-06T09:00:40;9.98;;;2.03;;
48685;SDS011;34485;51.536;3.816;2023-08-06T09:03:07;7.00;;;2.40;;
48685;SDS011;34485;51.536;3.816;2023-08-06T09:05:33;9.00;;;2.42;;
48685;SDS011;34485;51.536;3.816;2023-08-06T09:08:02;11.70;;;2.63;;
48685;SDS011;34485;51.536;3.816;2023-08-06T09:10:28;12.27;;;3.13;;
48685;SDS011;34485;51.536;3.816;2023-08-06T09:12:55;5.95;;;2.42;;
48685;SDS011;34485;51.536;3.816;2023-08-06T09:15:25;6.72;;;1.90;;
48685;SDS011;34485;51.536;3.816;2023-08-06T09:17:52;8.13;;;2.65;;
48685;SDS011;34485;51.536;3.816;2023-08-06T09:20:18;8.03;;;2.90;;
48685;SDS011;34485;51.536;3.816;2023-08-06T09:22:44;8.98;;;2.38;;
48685;SDS011;34485;51.536;3.816;2023-08-06T09:25:10;6.45;;;2.13;;
48685;SDS011;34485;51.536;3.816;2023-08-06T09:27:38;6.07;;;2.33;;
48685;SDS011;34485;51.536;3.816;2023-08-06T09:30:07;5.38;;;2.38;;
48685;SDS011;34485;51.536;3.816;2023-08-06T09:32:45;3.38;;;1.90;;
48685;SDS011;34485;51.536;3.816;2023-08-06T09:35:16;11.85;;;2.53;;
48685;SDS011;34485;51.536;3.816;2023-08-06T09:37:42;7.45;;;2.20;;
48685;SDS011;34485;51.536;3.816;2023-08-06T09:42:52;3.45;;;1.98;;
48685;SDS011;34485;51.536;3.816;2023-08-06T09:45:20;6.47;;;2.38;;
48685;SDS011;34485;51.536;3.816;2023-08-06T09:47:49;7.17;;;1.93;;
48685;SDS011;34485;51.536;3.816;2023-08-06T09:50:18;5.88;;;2.13;;
48685;SDS011;34485;51.536;3.816;2023-08-06T09:52:45;7.35;;;2.13;;
48685;SDS011;34485;51.536;3.816;2023-08-06T09:55:14;7.10;;;2.13;;
48685;SDS011;34485;51.536;3.816;2023-08-06T09:57:40;9.55;;;2.15;;
48685;SDS011;34485;51.536;3.816;2023-08-06T10:00:07;10.63;;;1.83;;
48685;SDS011;34485;51.536;3.816;2023-08-06T10:02:35;2.35;;;1.80;;
48685;SDS011;34485;51.536;3.816;2023-08-06T10:05:04;9.20;;;2.40;;
48685;SDS011;34485;51.536;3.816;2023-08-06T10:07:31;6.00;;;1.83;;
48685;SDS011;34485;51.536;3.816;2023-08-06T10:09:56;8.47;;;2.70;;
48685;SDS011;34485;51.536;3.816;2023-08-06T10:12:23;8.65;;;1.95;;
48685;SDS011;34485;51.536;3.816;2023-08-06T10:14:50;8.23;;;2.88;;
48685;SDS011;34485;51.536;3.816;2023-08-06T10:17:19;8.43;;;2.75;;
48685;SDS011;34485;51.536;3.816;2023-08-06T10:19:46;12.98;;;2.33;;
48685;SDS011;34485;51.536;3.816;2023-08-06T10:22:16;10.57;;;2.97;;
48685;SDS011;34485;51.536;3.816;2023-08-06T10:27:18;6.18;;;2.85;;
48685;SDS011;34485;51.536;3.816;2023-08-06T10:29:48;9.48;;;2.70;;
48685;SDS011;34485;51.536;3.816;2023-08-06T10:32:16;12.68;;;3.60;;
48685;SDS011;34485;51.536;3.816;2023-08-06T10:34:59;8.70;;;2.80;;
48685;SDS011;34485;51.536;3.816;2023-08-06T10:37:35;7.68;;;2.42;;
48685;SDS011;34485;51.536;3.816;2023-08-06T10:40:02;15.55;;;3.97;;
48685;SDS011;34485;51.536;3.816;2023-08-06T10:42:31;8.02;;;2.53;;
48685;SDS011;34485;51.536;3.816;2023-08-06T10:45:15;8.00;;;2.93;;
48685;SDS011;34485;51.536;3.816;2023-08-06T10:47:45;15.70;;;2.78;;
48685;SDS011;34485;51.536;3.816;2023-08-06T10:50:15;7.60;;;2.40;;
48685;SDS011;34485;51.536;3.816;2023-08-06T10:52:44;7.97;;;2.75;;
48685;SDS011;34485;51.536;3.816;2023-08-06T10:55:11;12.05;;;2.83;;
48685;SDS011;34485;51.536;3.816;2023-08-06T10:57:38;8.17;;;2.73;;
48685;SDS011;34485;51.536;3.816;2023-08-06T11:00:04;10.25;;;2.90;;
48685;SDS011;34485;51.536;3.816;2023-08-06T11:02:35;9.88;;;2.28;;
48685;SDS011;34485;51.536;3.816;2023-08-06T11:05:08;14.82;;;3.13;;
48685;SDS011;34485;51.536;3.816;2023-08-06T11:07:34;11.45;;;4.15;;
48685;SDS011;34485;51.536;3.816;2023-08-06T11:10:04;8.77;;;3.23;;
48685;SDS011;34485;51.536;3.816;2023-08-06T11:12:31;10.70;;;3.13;;
48685;SDS011;34485;51.536;3.816;2023-08-06T11:14:57;7.85;;;2.63;;
48685;SDS011;34485;51.536;3.816;2023-08-06T11:17:23;8.15;;;2.60;;
48685;SDS011;34485;51.536;3.816;2023-08-06T11:19:49;5.95;;;2.50;;
48685;SDS011;34485;51.536;3.816;2023-08-06T11:22:15;11.90;;;3.30;;
48685;SDS011;34485;51.536;3.816;2023-08-06T11:24:42;12.02;;;2.38;;
48685;SDS011;34485;51.536;3.816;2023-08-06T11:27:11;13.17;;;2.97;;
48685;SDS011;34485;51.536;3.816;2023-08-06T11:29:41;8.30;;;3.22;;
48685;SDS011;34485;51.536;3.816;2023-08-06T11:32:07;15.65;;;3.00;;
48685;SDS011;34485;51.536;3.816;2023-08-06T11:34:34;7.88;;;2.25;;
48685;SDS011;34485;51.536;3.816;2023-08-06T11:37:00;4.38;;;2.25;;
48685;SDS011;34485;51.536;3.816;2023-08-06T11:39:27;3.00;;;2.03;;
48685;SDS011;34485;51.536;3.816;2023-08-06T11:41:54;11.77;;;2.70;;
48685;SDS011;34485;51.536;3.816;2023-08-06T11:44:20;9.00;;;2.83;;
48685;SDS011;34485;51.536;3.816;2023-08-06T11:46:54;10.27;;;2.58;;
48685;SDS011;34485;51.536;3.816;2023-08-06T11:49:40;12.23;;;3.33;;
48685;SDS011;34485;51.536;3.816;2023-08-06T11:54:45;19.35;;;4.15;;
48685;SDS011;34485;51.536;3.816;2023-08-06T11:57:28;18.92;;;4.53;;
48685;SDS011;34485;51.536;3.816;2023-08-06T11:59:57;19.35;;;2.85;;
48685;SDS011;34485;51.536;3.816;2023-08-06T12:02:30;9.43;;;3.47;;
48685;SDS011;34485;51.536;3.816;2023-08-06T12:05:04;15.73;;;3.88;;
48685;SDS011;34485;51.536;3.816;2023-08-06T12:07:36;7.95;;;2.88;;
48685;SDS011;34485;51.536;3.816;2023-08-06T12:10:03;10.63;;;2.45;;
48685;SDS011;34485;51.536;3.816;2023-08-06T12:12:30;17.08;;;2.50;;
48685;SDS011;34485;51.536;3.816;2023-08-06T12:14:55;8.07;;;2.73;;
48685;SDS011;34485;51.536;3.816;2023-08-06T12:17:23;12.38;;;2.53;;
48685;SDS011;34485;51.536;3.816;2023-08-06T12:19:49;13.52;;;3.92;;
48685;SDS011;34485;51.536;3.816;2023-08-06T12:22:15;12.18;;;2.80;;
48685;SDS011;34485;51.536;3.816;2023-08-06T12:24:42;5.97;;;2.17;;
48685;SDS011;34485;51.536;3.816;2023-08-06T12:27:09;7.40;;;2.38;;
48685;SDS011;34485;51.536;3.816;2023-08-06T12:29:35;7.18;;;2.58;;
48685;SDS011;34485;51.536;3.816;2023-08-06T12:32:02;12.40;;;2.78;;
48685;SDS011;34485;51.536;3.816;2023-08-06T12:34:28;4.47;;;2.38;;
48685;SDS011;34485;51.536;3.816;2023-08-06T12:36:54;12.33;;;3.47;;
48685;SDS011;34485;51.536;3.816;2023-08-06T12:39:20;7.00;;;2.67;;
48685;SDS011;34485;51.536;3.816;2023-08-06T12:41:47;9.55;;;2.60;;
48685;SDS011;34485;51.536;3.816;2023-08-06T12:44:12;14.97;;;3.10;;
48685;SDS011;34485;51.536;3.816;2023-08-06T12:46:38;11.57;;;2.63;;
48685;SDS011;34485;51.536;3.816;2023-08-06T12:49:04;11.35;;;3.47;;
48685;SDS011;34485;51.536;3.816;2023-08-06T12:51:31;11.52;;;2.70;;
48685;SDS011;34485;51.536;3.816;2023-08-06T12:53:58;14.93;;;4.00;;
48685;SDS011;34485;51.536;3.816;2023-08-06T12:56:24;11.07;;;2.70;;
48685;SDS011;34485;51.536;3.816;2023-08-06T12:58:50;15.18;;;2.90;;
48685;SDS011;34485;51.536;3.816;2023-08-06T13:01:15;12.33;;;2.77;;
48685;SDS011;34485;51.536;3.816;2023-08-06T13:03:41;8.60;;;2.57;;
48685;SDS011;34485;51.536;3.816;2023-08-06T13:06:07;9.85;;;3.00;;
48685;SDS011;34485;51.536;3.816;2023-08-06T13:08:34;10.35;;;2.60;;
48685;SDS011;34485;51.536;3.816;2023-08-06T13:11:00;12.85;;;4.03;;
48685;SDS011;34485;51.536;3.816;2023-08-06T13:13:26;17.33;;;4.22;;
48685;SDS011;34485;51.536;3.816;2023-08-06T13:15:52;11.13;;;4.00;;
48685;SDS011;34485;51.536;3.816;2023-08-06T13:18:17;11.20;;;3.70;;
48685;SDS011;34485;51.536;3.816;2023-08-06T13:20:43;7.40;;;2.63;;
48685;SDS011;34485;51.536;3.816;2023-08-06T13:23:09;11.27;;;3.33;;
48685;SDS011;34485;51.536;3.816;2023-08-06T13:25:34;8.88;;;3.50;;
48685;SDS011;34485;51.536;3.816;2023-08-06T13:28:05;8.88;;;2.58;;
48685;SDS011;34485;51.536;3.816;2023-08-06T13:30:30;7.50;;;2.03;;
48685;SDS011;34485;51.536;3.816;2023-08-06T13:32:56;7.75;;;2.63;;
48685;SDS011;34485;51.536;3.816;2023-08-06T13:35:22;14.07;;;3.07;;
48685;SDS011;34485;51.536;3.816;2023-08-06T13:37:48;8.98;;;2.95;;
48685;SDS011;34485;51.536;3.816;2023-08-06T13:40:14;6.95;;;3.25;;
48685;SDS011;34485;51.536;3.816;2023-08-06T13:42:40;10.45;;;3.33;;
48685;SDS011;34485;51.536;3.816;2023-08-06T13:45:06;9.33;;;2.83;;
48685;SDS011;34485;51.536;3.816;2023-08-06T13:47:32;4.55;;;2.40;;
48685;SDS011;34485;51.536;3.816;2023-08-06T13:49:57;5.57;;;2.90;;
48685;SDS011;34485;51.536;3.816;2023-08-06T13:52:25;6.20;;;2.38;;
48685;SDS011;34485;51.536;3.816;2023-08-06T13:54:51;7.65;;;3.67;;
48685;SDS011;34485;51.536;3.816;2023-08-06T13:57:17;10.67;;;2.53;;
48685;SDS011;34485;51.536;3.816;2023-08-06T13:59:43;5.68;;;2.72;;
48685;SDS011;34485;51.536;3.816;2023-08-06T14:02:09;9.13;;;2.73;;
48685;SDS011;34485;51.536;3.816;2023-08-06T14:04:35;8.23;;;3.23;;
48685;SDS011;34485;51.536;3.816;2023-08-06T14:07:02;9.18;;;3.25;;
48685;SDS011;34485;51.536;3.816;2023-08-06T14:09:28;15.65;;;3.28;;
48685;SDS011;34485;51.536;3.816;2023-08-06T14:11:54;13.23;;;3.80;;
48685;SDS011;34485;51.536;3.816;2023-08-06T14:14:19;9.30;;;2.73;;
48685;SDS011;34485;51.536;3.816;2023-08-06T14:16:51;6.90;;;2.78;;
48685;SDS011;34485;51.536;3.816;2023-08-06T14:19:17;7.60;;;1.92;;
48685;SDS011;34485;51.536;3.816;2023-08-06T14:21:44;12.13;;;2.67;;
48685;SDS011;34485;51.536;3.816;2023-08-06T14:24:09;9.80;;;3.08;;
48685;SDS011;34485;51.536;3.816;2023-08-06T14:26:35;4.33;;;2.67;;
48685;SDS011;34485;51.536;3.816;2023-08-06T14:29:01;8.20;;;2.97;;
48685;SDS011;34485;51.536;3.816;2023-08-06T14:31:26;6.00;;;2.17;;
48685;SDS011;34485;51.536;3.816;2023-08-06T14:33:52;7.68;;;2.17;;
48685;SDS011;34485;51.536;3.816;2023-08-06T14:36:18;13.00;;;3.40;;
48685;SDS011;34485;51.536;3.816;2023-08-06T14:38:44;9.90;;;2.88;;
48685;SDS011;34485;51.536;3.816;2023-08-06T14:41:09;13.67;;;2.83;;
48685;SDS011;34485;51.536;3.816;2023-08-06T14:43:36;9.93;;;2.40;;
48685;SDS011;34485;51.536;3.816;2023-08-06T14:46:01;9.75;;;2.38;;
48685;SDS011;34485;51.536;3.816;2023-08-06T14:48:28;11.87;;;2.03;;
48685;SDS011;34485;51.536;3.816;2023-08-06T14:50:54;9.30;;;2.60;;